Time,TemperatureF,DewpointF,PressureIn,WindDirection,WindDirectionDegrees,WindSpeedMPH,WindSpeedGustMPH,Humidity,HourlyPrecipIn,Conditions,Clouds,dailyrainin,SoftwareType,DateUTC
2013-11-18 00:05:00,29.3,24.8,30.17,West,265,8.0,8.0,83,0.00,,,0.00,Wunderground v.1.15,2013-11-18 06:05:00,
2013-11-18 00:10:00,29.6,25.1,30.17,West,265,9.0,11.0,83,0.00,,,0.00,Wunderground v.1.15,2013-11-18 06:10:00,
2013-11-18 00:15:00,30.3,25.5,30.18,West,261,9.0,11.0,82,0.00,,,0.00,Wunderground v.1.15,2013-11-18 06:15:00,
2013-11-18 00:20:00,30.5,25.4,30.18,WSW,250,9.0,10.0,81,0.00,,,0.00,Wunderground v.1.15,2013-11-18 06:20:00,
2013-11-18 00:25:00,30.2,25.1,30.18,WSW,246,8.0,10.0,81,0.00,,,0.00,Wunderground v.1.15,2013-11-18 06:25:00,
2013-11-18 00:30:00,29.6,24.5,30.18,WSW,242,7.0,7.0,81,0.00,,,0.00,Wunderground v.1.15,2013-11-18 06:30:00,
2013-11-18 00:40:00,29.0,24.2,30.18,WSW,256,7.0,7.0,82,0.00,,,0.00,Wunderground v.1.15,2013-11-18 06:40:00,
2013-11-18 00:45:00,28.9,24.1,30.18,WSW,256,7.0,8.0,82,0.00,,,0.00,Wunderground v.1.15,2013-11-18 06:45:00,
2013-11-18 00:50:00,28.9,24.4,30.17,West,261,7.0,7.0,83,0.00,,,0.00,Wunderground v.1.15,2013-11-18 06:50:00,
2013-11-18 00:55:00,29.0,24.5,30.18,West,265,7.0,7.0,83,0.00,,,0.00,Wunderground v.1.15,2013-11-18 06:55:00,
2013-11-18 01:00:00,29.1,24.3,30.18,West,266,6.0,6.0,82,0.00,,,0.00,Wunderground v.1.15,2013-11-18 07:00:00,
2013-11-18 01:10:00,29.4,24.6,30.17,West,271,6.0,7.0,82,0.00,,,0.00,Wunderground v.1.15,2013-11-18 07:10:00,
2013-11-18 01:15:00,29.7,24.6,30.17,West,271,7.0,8.0,81,0.00,,,0.00,Wunderground v.1.15,2013-11-18 07:15:00,
2013-11-18 01:20:00,29.7,24.6,30.17,West,271,7.0,7.0,81,0.00,,,0.00,Wunderground v.1.15,2013-11-18 07:20:00,
2013-11-18 01:25:00,29.5,24.4,30.17,West,271,7.0,8.0,81,0.00,,,0.00,Wunderground v.1.15,2013-11-18 07:25:00,
2013-11-18 01:30:00,29.1,23.7,30.17,West,269,7.0,8.0,80,0.00,,,0.00,Wunderground v.1.15,2013-11-18 07:30:00,
2013-11-18 01:35:00,28.8,24.0,30.17,West,267,7.0,8.0,82,0.00,,,0.00,Wunderground v.1.15,2013-11-18 07:35:00,
2013-11-18 01:45:00,28.7,23.9,30.17,West,265,8.0,8.0,82,0.00,,,0.00,Wunderground v.1.15,2013-11-18 07:45:00,
2013-11-18 01:50:00,28.8,24.0,30.17,West,264,7.0,9.0,82,0.00,,,0.00,Wunderground v.1.15,2013-11-18 07:50:00,
2013-11-18 01:55:00,28.8,23.7,30.17,West,263,8.0,9.0,81,0.00,,,0.00,Wunderground v.1.15,2013-11-18 07:55:00,
2013-11-18 02:00:00,28.4,23.3,30.17,WSW,257,7.0,7.0,81,0.00,,,0.00,Wunderground v.1.15,2013-11-18 08:00:00,
2013-11-18 02:05:00,27.9,22.8,30.18,WSW,257,7.0,7.0,81,0.00,,,0.00,Wunderground v.1.15,2013-11-18 08:05:00,
2013-11-18 02:10:00,27.8,23.0,30.18,WSW,257,7.0,7.0,82,0.00,,,0.00,Wunderground v.1.15,2013-11-18 08:10:00,
2013-11-18 02:15:00,28.1,23.3,30.18,WSW,257,7.0,8.0,82,0.00,,,0.00,Wunderground v.1.15,2013-11-18 08:15:00,
2013-11-18 02:20:00,28.3,23.2,30.18,WSW,257,7.0,7.0,81,0.00,,,0.00,Wunderground v.1.15,2013-11-18 08:20:00,
2013-11-18 02:25:00,28.3,23.2,30.18,WSW,258,7.0,7.0,81,0.00,,,0.00,Wunderground v.1.15,2013-11-18 08:25:00,
2013-11-18 02:35:00,27.8,23.0,30.18,West,259,7.0,8.0,82,0.00,,,0.00,Wunderground v.1.15,2013-11-18 08:35:00,
2013-11-18 02:40:00,27.7,22.9,30.18,West,261,7.0,7.0,82,0.00,,,0.00,Wunderground v.1.15,2013-11-18 08:40:00,
2013-11-18 02:45:00,27.8,23.0,30.18,West,263,6.0,7.0,82,0.00,,,0.00,Wunderground v.1.15,2013-11-18 08:45:00,
2013-11-18 02:50:00,27.9,23.1,30.19,West,265,6.0,7.0,82,0.00,,,0.00,Wunderground v.1.15,2013-11-18 08:50:00,
2013-11-18 02:55:00,28.1,23.3,30.19,West,267,6.0,7.0,82,0.00,,,0.00,Wunderground v.1.15,2013-11-18 08:55:00,
2013-11-18 03:00:00,28.3,23.5,30.19,West,269,6.0,6.0,82,0.00,,,0.00,Wunderground v.1.15,2013-11-18 09:00:00,
2013-11-18 03:05:00,28.2,23.4,30.19,West,269,5.0,7.0,82,0.00,,,0.00,Wunderground v.1.15,2013-11-18 09:05:00,
2013-11-18 03:10:00,28.3,23.5,30.19,West,269,4.0,7.0,82,0.00,,,0.00,Wunderground v.1.15,2013-11-18 09:10:00,
2013-11-18 03:20:00,28.1,23.0,30.19,West,269,5.0,5.0,81,0.00,,,0.00,Wunderground v.1.15,2013-11-18 09:20:00,
2013-11-18 03:25:00,27.8,22.7,30.19,West,269,4.0,7.0,81,0.00,,,0.00,Wunderground v.1.15,2013-11-18 09:25:00,
2013-11-18 03:30:00,27.6,22.8,30.19,West,269,4.0,7.0,82,0.00,,,0.00,Wunderground v.1.15,2013-11-18 09:30:00,
2013-11-18 03:35:00,27.5,22.7,30.19,West,269,5.0,7.0,82,0.00,,,0.00,Wunderground v.1.15,2013-11-18 09:35:00,
2013-11-18 03:40:00,27.4,22.6,30.19,West,269,5.0,7.0,82,0.00,,,0.00,Wunderground v.1.15,2013-11-18 09:40:00,
2013-11-18 03:50:00,27.6,23.1,30.20,West,269,4.0,7.0,83,0.00,,,0.00,Wunderground v.1.15,2013-11-18 09:50:00,
2013-11-18 03:55:00,27.8,23.0,30.20,West,269,5.0,7.0,82,0.00,,,0.00,Wunderground v.1.15,2013-11-18 09:55:00,
2013-11-18 04:00:00,27.6,22.8,30.20,West,269,5.0,5.0,82,0.00,,,0.00,Wunderground v.1.15,2013-11-18 10:00:00,
2013-11-18 04:05:00,27.6,22.8,30.20,West,272,5.0,7.0,82,0.00,,,0.00,Wunderground v.1.15,2013-11-18 10:05:00,
2013-11-18 04:10:00,27.7,22.9,30.20,West,272,5.0,5.0,82,0.00,,,0.00,Wunderground v.1.15,2013-11-18 10:10:00,
2013-11-18 04:15:00,27.7,22.9,30.20,West,272,5.0,7.0,82,0.00,,,0.00,Wunderground v.1.15,2013-11-18 10:15:00,
2013-11-18 04:25:00,27.3,22.5,30.20,West,271,6.0,7.0,82,0.00,,,0.00,Wunderground v.1.15,2013-11-18 10:25:00,
2013-11-18 04:30:00,27.4,22.9,30.20,West,271,7.0,7.0,83,0.00,,,0.00,Wunderground v.1.15,2013-11-18 10:30:00,
2013-11-18 04:35:00,27.5,23.0,30.21,West,273,7.0,8.0,83,0.00,,,0.00,Wunderground v.1.15,2013-11-18 10:35:00,
2013-11-18 04:40:00,27.5,23.0,30.21,West,273,7.0,7.0,83,0.00,,,0.00,Wunderground v.1.15,2013-11-18 10:40:00,
2013-11-18 04:45:00,27.4,22.9,30.21,West,273,7.0,7.0,83,0.00,,,0.00,Wunderground v.1.15,2013-11-18 10:45:00,
2013-11-18 04:55:00,27.0,22.5,30.22,West,272,7.0,7.0,83,0.00,,,0.00,Wunderground v.1.15,2013-11-18 10:55:00,
2013-11-18 05:00:00,26.8,22.3,30.22,West,270,7.0,7.0,83,0.00,,,0.00,Wunderground v.1.15,2013-11-18 11:00:00,
2013-11-18 05:05:00,26.7,22.2,30.22,West,269,7.0,7.0,83,0.00,,,0.00,Wunderground v.1.15,2013-11-18 11:05:00,
2013-11-18 05:10:00,26.6,22.1,30.23,West,269,6.0,7.0,83,0.00,,,0.00,Wunderground v.1.15,2013-11-18 11:10:00,
2013-11-18 05:15:00,26.5,22.3,30.23,West,269,5.0,7.0,84,0.00,,,0.00,Wunderground v.1.15,2013-11-18 11:15:00,
2013-11-18 05:20:00,26.7,22.5,30.23,West,269,5.0,7.0,84,0.00,,,0.00,Wunderground v.1.15,2013-11-18 11:20:00,
2013-11-18 05:30:00,26.7,22.5,30.24,West,267,6.0,7.0,84,0.00,,,0.00,Wunderground v.1.15,2013-11-18 11:30:00,
2013-11-18 05:35:00,26.7,22.2,30.24,West,267,6.0,7.0,83,0.00,,,0.00,Wunderground v.1.15,2013-11-18 11:35:00,
2013-11-18 05:40:00,27.1,22.9,30.24,West,267,6.0,7.0,84,0.00,,,0.00,Wunderground v.1.15,2013-11-18 11:40:00,
2013-11-18 05:45:00,27.4,22.9,30.24,West,267,6.0,7.0,83,0.00,,,0.00,Wunderground v.1.15,2013-11-18 11:45:00,
2013-11-18 05:50:00,27.7,22.9,30.25,West,266,5.0,5.0,82,0.00,,,0.00,Wunderground v.1.15,2013-11-18 11:50:00,
2013-11-18 06:00:00,27.6,22.8,30.25,West,265,4.0,7.0,82,0.00,,,0.00,Wunderground v.1.15,2013-11-18 12:00:00,
2013-11-18 06:05:00,27.5,22.7,30.25,West,265,4.0,7.0,82,0.00,,,0.00,Wunderground v.1.15,2013-11-18 12:05:00,
2013-11-18 06:10:00,27.0,21.9,30.25,West,264,5.0,7.0,81,0.00,,,0.00,Wunderground v.1.15,2013-11-18 12:10:00,
2013-11-18 06:15:00,27.0,22.5,30.25,WSW,257,5.0,7.0,83,0.00,,,0.00,Wunderground v.1.15,2013-11-18 12:15:00,
2013-11-18 06:20:00,27.2,22.1,30.26,WSW,256,5.0,7.0,81,0.00,,,0.00,Wunderground v.1.15,2013-11-18 12:20:00,
2013-11-18 06:25:00,26.7,21.7,30.26,WSW,257,5.0,7.0,81,0.00,,,0.00,Wunderground v.1.15,2013-11-18 12:25:00,
2013-11-18 06:30:00,27.3,22.5,30.26,WSW,257,5.0,7.0,82,0.00,,,0.00,Wunderground v.1.15,2013-11-18 12:30:00,
2013-11-18 06:40:00,27.5,22.1,30.27,WSW,257,6.0,6.0,80,0.00,,,0.00,Wunderground v.1.15,2013-11-18 12:40:00,
2013-11-18 06:45:00,27.1,21.5,30.27,WSW,257,5.0,7.0,79,0.00,,,0.00,Wunderground v.1.15,2013-11-18 12:45:00,
2013-11-18 06:50:00,26.8,21.5,30.27,WSW,257,4.0,7.0,80,0.00,,,0.00,Wunderground v.1.15,2013-11-18 12:50:00,
2013-11-18 06:55:00,27.4,21.7,30.28,WSW,254,4.0,7.0,79,0.00,,,0.00,Wunderground v.1.15,2013-11-18 12:55:00,
2013-11-18 07:00:00,27.6,21.3,30.28,WSW,243,5.0,7.0,77,0.00,,,0.00,Wunderground v.1.15,2013-11-18 13:00:00,
2013-11-18 07:05:00,27.2,21.2,30.28,WSW,238,5.0,7.0,78,0.00,,,0.00,Wunderground v.1.15,2013-11-18 13:05:00,
2013-11-18 07:10:00,27.2,21.5,30.29,WSW,237,5.0,7.0,79,0.00,,,0.00,Wunderground v.1.15,2013-11-18 13:10:00,
2013-11-18 07:15:00,27.1,21.5,30.29,SW,236,5.0,7.0,79,0.00,,,0.00,Wunderground v.1.15,2013-11-18 13:15:00,
2013-11-18 07:20:00,26.6,21.0,30.29,SW,231,4.0,7.0,79,0.00,,,0.00,Wunderground v.1.15,2013-11-18 13:20:00,
2013-11-18 07:25:00,25.9,20.9,30.29,SW,230,3.0,7.0,81,0.00,,,0.00,Wunderground v.1.15,2013-11-18 13:25:00,
2013-11-18 07:35:00,25.2,20.5,30.29,SW,230,3.0,7.0,82,0.00,,,0.00,Wunderground v.1.15,2013-11-18 13:35:00,
2013-11-18 07:40:00,25.0,20.6,30.30,SW,225,4.0,7.0,83,0.00,,,0.00,Wunderground v.1.15,2013-11-18 13:40:00,
2013-11-18 07:45:00,25.0,20.8,30.30,SW,225,4.0,7.0,84,0.00,,,0.00,Wunderground v.1.15,2013-11-18 13:45:00,
2013-11-18 07:50:00,25.1,20.9,30.30,SW,225,3.0,7.0,84,0.00,,,0.00,Wunderground v.1.15,2013-11-18 13:50:00,
2013-11-18 07:55:00,25.1,20.9,30.30,SW,225,2.0,7.0,84,0.00,,,0.00,Wunderground v.1.15,2013-11-18 13:55:00,
2013-11-18 08:00:00,25.3,21.1,30.31,SW,225,2.0,2.0,84,0.00,,,0.00,Wunderground v.1.15,2013-11-18 14:00:00,
2013-11-18 08:10:00,26.2,22.0,30.31,SW,225,3.0,7.0,84,0.00,,,0.00,Wunderground v.1.15,2013-11-18 14:10:00,
2013-11-18 08:15:00,26.8,22.6,30.31,SW,225,3.0,7.0,84,0.00,,,0.00,Wunderground v.1.15,2013-11-18 14:15:00,
2013-11-18 08:20:00,27.4,22.9,30.31,SW,225,4.0,7.0,83,0.00,,,0.00,Wunderground v.1.15,2013-11-18 14:20:00,
2013-11-18 08:25:00,27.8,23.3,30.31,SW,225,4.0,7.0,83,0.00,,,0.00,Wunderground v.1.15,2013-11-18 14:25:00,
2013-11-18 08:30:00,28.3,23.8,30.31,SW,225,2.0,7.0,83,0.00,,,0.00,Wunderground v.1.15,2013-11-18 14:30:00,
2013-11-18 08:40:00,29.5,25.0,30.31,SW,225,3.0,3.0,83,0.00,,,0.00,Wunderground v.1.15,2013-11-18 14:40:00,
2013-11-18 08:45:00,30.3,25.8,30.31,SW,225,2.0,7.0,83,0.00,,,0.00,Wunderground v.1.15,2013-11-18 14:45:00,
2013-11-18 08:50:00,31.2,26.3,30.32,SW,225,1.0,7.0,82,0.00,,,0.00,Wunderground v.1.15,2013-11-18 14:50:00,
2013-11-18 08:55:00,32.2,26.7,30.32,SW,225,2.0,7.0,80,0.00,,,0.00,Wunderground v.1.15,2013-11-18 14:55:00,
2013-11-18 09:00:00,33.0,27.5,30.32,SW,225,2.0,7.0,80,0.00,,,0.00,Wunderground v.1.15,2013-11-18 15:00:00,
2013-11-18 09:05:00,33.7,27.9,30.32,SSW,200,4.0,7.0,79,0.00,,,0.00,Wunderground v.1.15,2013-11-18 15:05:00,
2013-11-18 09:15:00,34.3,26.9,30.33,SSW,200,5.0,7.0,74,0.00,,,0.00,Wunderground v.1.15,2013-11-18 15:15:00,
2013-11-18 09:20:00,34.9,27.5,30.33,SSW,200,5.0,7.0,74,0.00,,,0.00,Wunderground v.1.15,2013-11-18 15:20:00,
2013-11-18 09:25:00,35.0,26.9,30.33,SSW,200,5.0,7.0,72,0.00,,,0.00,Wunderground v.1.15,2013-11-18 15:25:00,
2013-11-18 09:30:00,35.4,28.6,30.33,SSW,196,5.0,7.0,76,0.00,,,0.00,Wunderground v.1.15,2013-11-18 15:30:00,
2013-11-18 09:35:00,35.6,28.1,30.33,SSW,193,5.0,7.0,74,0.00,,,0.00,Wunderground v.1.15,2013-11-18 15:35:00,
2013-11-18 17:20:00,48.7,24.8,30.22,SSE,157,8.0,9.0,39,0.00,,,0.00,Wunderground v.1.15,2013-11-18 23:20:00,
2013-11-18 17:30:00,47.4,24.9,30.22,SSE,155,9.0,9.0,41,0.00,,,0.00,Wunderground v.1.15,2013-11-18 23:30:00,
2013-11-18 17:35:00,46.8,24.9,30.22,SSE,152,9.0,9.0,42,0.00,,,0.00,Wunderground v.1.15,2013-11-18 23:35:00,
2013-11-18 17:40:00,46.3,25.0,30.23,SSE,153,9.0,10.0,43,0.00,,,0.00,Wunderground v.1.15,2013-11-18 23:40:00,
2013-11-18 17:45:00,46.3,25.6,30.22,SSE,155,9.0,10.0,44,0.00,,,0.00,Wunderground v.1.15,2013-11-18 23:45:00,
2013-11-18 17:50:00,46.1,25.9,30.23,SSE,157,10.0,10.0,45,0.00,,,0.00,Wunderground v.1.15,2013-11-18 23:50:00,
2013-11-18 18:00:00,47.0,26.7,30.23,SSE,159,10.0,10.0,45,0.00,,,0.00,Wunderground v.1.15,2013-11-19 00:00:00,
2013-11-18 18:05:00,46.6,26.4,30.23,SSE,161,10.0,10.0,45,0.00,,,0.00,Wunderground v.1.15,2013-11-19 00:05:00,
2013-11-18 18:10:00,46.0,26.4,30.23,SSE,162,10.0,10.0,46,0.00,,,0.00,Wunderground v.1.15,2013-11-19 00:10:00,
2013-11-18 18:15:00,45.3,26.7,30.22,SSE,159,10.0,10.0,48,0.00,,,0.00,Wunderground v.1.15,2013-11-19 00:15:00,
2013-11-18 18:20:00,44.9,26.4,30.22,SSE,165,9.0,9.0,48,0.00,,,0.00,Wunderground v.1.15,2013-11-19 00:20:00,
2013-11-18 18:25:00,44.3,26.3,30.23,SSE,161,9.0,9.0,49,0.00,,,0.00,Wunderground v.1.15,2013-11-19 00:25:00,
2013-11-18 18:30:00,44.0,26.0,30.23,SSE,165,8.0,9.0,49,0.00,,,0.00,Wunderground v.1.15,2013-11-19 00:30:00,
2013-11-18 18:35:00,44.0,25.5,30.23,SSE,163,8.0,9.0,48,0.00,,,0.00,Wunderground v.1.15,2013-11-19 00:35:00,
2013-11-18 18:40:00,44.0,25.5,30.22,SSE,163,8.0,8.0,48,0.00,,,0.00,Wunderground v.1.15,2013-11-19 00:40:00,
2013-11-18 18:45:00,43.6,25.2,30.22,SSE,161,8.0,8.0,48,0.00,,,0.00,Wunderground v.1.15,2013-11-19 00:45:00,
2013-11-18 18:50:00,43.1,25.2,30.23,SSE,157,9.0,9.0,49,0.00,,,0.00,Wunderground v.1.15,2013-11-19 00:50:00,
2013-11-18 18:55:00,42.6,25.2,30.23,SSE,163,9.0,9.0,50,0.00,,,0.00,Wunderground v.1.15,2013-11-19 00:55:00,
2013-11-18 19:05:00,41.9,25.1,30.22,SSE,155,9.0,11.0,51,0.00,,,0.00,Wunderground v.1.15,2013-11-19 01:05:00,
2013-11-18 19:10:00,41.2,24.9,30.23,SSE,153,9.0,9.0,52,0.00,,,0.00,Wunderground v.1.15,2013-11-19 01:10:00,
2013-11-18 19:15:00,41.0,24.7,30.22,SSE,157,10.0,11.0,52,0.00,,,0.00,Wunderground v.1.15,2013-11-19 01:15:00,
2013-11-18 19:20:00,41.0,24.7,30.22,SSE,155,10.0,10.0,52,0.00,,,0.00,Wunderground v.1.15,2013-11-19 01:20:00,
2013-11-18 19:25:00,41.2,24.9,30.22,SSE,153,11.0,11.0,52,0.00,,,0.00,Wunderground v.1.15,2013-11-19 01:25:00,
2013-11-18 19:30:00,41.3,25.0,30.22,SSE,160,11.0,11.0,52,0.00,,,0.00,Wunderground v.1.15,2013-11-19 01:30:00,
2013-11-18 19:35:00,41.9,25.1,30.22,SSE,160,11.0,11.0,51,0.00,,,0.00,Wunderground v.1.15,2013-11-19 01:35:00,
2013-11-18 19:40:00,41.8,25.0,30.22,SSE,162,11.0,11.0,51,0.00,,,0.00,Wunderground v.1.15,2013-11-19 01:40:00,
2013-11-18 19:45:00,41.6,25.3,30.22,SSE,151,11.0,13.0,52,0.00,,,0.00,Wunderground v.1.15,2013-11-19 01:45:00,
2013-11-18 19:50:00,41.3,25.0,30.22,SSE,153,11.0,11.0,52,0.00,,,0.00,Wunderground v.1.15,2013-11-19 01:50:00,
2013-11-18 19:55:00,40.9,25.1,30.22,SSE,158,11.0,11.0,53,0.00,,,0.00,Wunderground v.1.15,2013-11-19 01:55:00,
2013-11-18 20:00:00,40.7,24.9,30.22,SSE,160,11.0,11.0,53,0.00,,,0.00,Wunderground v.1.15,2013-11-19 02:00:00,
2013-11-18 20:05:00,40.9,25.1,30.22,SSE,158,10.0,11.0,53,0.00,,,0.00,Wunderground v.1.15,2013-11-19 02:05:00,
2013-11-18 20:10:00,40.9,25.1,30.22,SSE,155,11.0,11.0,53,0.00,,,0.00,Wunderground v.1.15,2013-11-19 02:10:00,
2013-11-18 20:15:00,40.7,24.9,30.22,SSE,150,11.0,11.0,53,0.00,,,0.00,Wunderground v.1.15,2013-11-19 02:15:00,
2013-11-18 20:20:00,40.2,25.3,30.23,SSE,156,11.0,11.0,55,0.00,,,0.00,Wunderground v.1.15,2013-11-19 02:20:00,
2013-11-18 20:25:00,39.8,24.9,30.23,SSE,155,11.0,11.0,55,0.00,,,0.00,Wunderground v.1.15,2013-11-19 02:25:00,
2013-11-18 20:30:00,39.6,25.2,30.22,SSE,157,11.0,11.0,56,0.00,,,0.00,Wunderground v.1.15,2013-11-19 02:30:00,
2013-11-18 20:40:00,39.6,25.2,30.23,SSE,158,11.0,11.0,56,0.00,,,0.00,Wunderground v.1.15,2013-11-19 02:40:00,
2013-11-18 20:45:00,39.3,24.9,30.23,SSE,155,11.0,12.0,56,0.00,,,0.00,Wunderground v.1.15,2013-11-19 02:45:00,
2013-11-18 20:50:00,39.2,24.8,30.23,SSE,159,11.0,11.0,56,0.00,,,0.00,Wunderground v.1.15,2013-11-19 02:50:00,
2013-11-18 20:55:00,38.8,24.9,30.23,SSE,157,11.0,11.0,57,0.00,,,0.00,Wunderground v.1.15,2013-11-19 02:55:00,
2013-11-18 21:00:00,38.5,25.0,30.23,SSE,153,10.0,11.0,58,0.00,,,0.00,Wunderground v.1.15,2013-11-19 03:00:00,
2013-11-18 21:05:00,38.3,24.8,30.23,SSE,160,10.0,11.0,58,0.00,,,0.00,Wunderground v.1.15,2013-11-19 03:05:00,
2013-11-18 21:15:00,37.7,25.1,30.23,SSE,155,9.0,10.0,60,0.00,,,0.00,Wunderground v.1.15,2013-11-19 03:15:00,
2013-11-18 21:20:00,37.5,24.9,30.23,SSE,162,9.0,9.0,60,0.00,,,0.00,Wunderground v.1.15,2013-11-19 03:20:00,
2013-11-18 21:25:00,37.3,24.7,30.23,SSE,155,8.0,9.0,60,0.00,,,0.00,Wunderground v.1.15,2013-11-19 03:25:00,
2013-11-18 21:30:00,37.0,24.8,30.23,SSE,151,9.0,9.0,61,0.00,,,0.00,Wunderground v.1.15,2013-11-19 03:30:00,
2013-11-18 21:35:00,37.0,24.8,30.23,SSE,158,9.0,9.0,61,0.00,,,0.00,Wunderground v.1.15,2013-11-19 03:35:00,
2013-11-18 21:45:00,36.8,24.6,30.23,SSE,155,8.0,9.0,61,0.00,,,0.00,Wunderground v.1.15,2013-11-19 03:45:00,
2013-11-18 21:50:00,36.4,24.6,30.23,SSE,155,8.0,8.0,62,0.00,,,0.00,Wunderground v.1.15,2013-11-19 03:50:00,
2013-11-18 21:55:00,36.1,24.7,30.23,SSE,155,7.0,8.0,63,0.00,,,0.00,Wunderground v.1.15,2013-11-19 03:55:00,
2013-11-18 22:00:00,35.8,24.4,30.23,SSE,155,8.0,8.0,63,0.00,,,0.00,Wunderground v.1.15,2013-11-19 04:00:00,
2013-11-18 22:05:00,35.6,24.6,30.23,SSE,157,7.0,8.0,64,0.00,,,0.00,Wunderground v.1.15,2013-11-19 04:05:00,
2013-11-18 22:10:00,35.4,24.4,30.23,SSE,158,7.0,7.0,64,0.00,,,0.00,Wunderground v.1.15,2013-11-19 04:10:00,
2013-11-18 22:15:00,35.5,24.5,30.23,SSE,160,7.0,7.0,64,0.00,,,0.00,Wunderground v.1.15,2013-11-19 04:15:00,
2013-11-18 22:20:00,35.8,24.4,30.23,SSE,163,7.0,7.0,63,0.00,,,0.00,Wunderground v.1.15,2013-11-19 04:20:00,
2013-11-18 22:25:00,35.8,24.8,30.23,SSE,157,7.0,7.0,64,0.00,,,0.00,Wunderground v.1.15,2013-11-19 04:25:00,
2013-11-18 22:30:00,35.6,24.6,30.23,SSE,161,7.0,7.0,64,0.00,,,0.00,Wunderground v.1.15,2013-11-19 04:30:00,
2013-11-18 22:35:00,35.4,24.4,30.23,SSE,163,6.0,7.0,64,0.00,,,0.00,Wunderground v.1.15,2013-11-19 04:35:00,
2013-11-18 22:40:00,35.1,24.5,30.23,SSE,168,5.0,5.0,65,0.00,,,0.00,Wunderground v.1.15,2013-11-19 04:40:00,
2013-11-18 22:45:00,34.8,24.6,30.23,South,169,5.0,7.0,66,0.00,,,0.00,Wunderground v.1.15,2013-11-19 04:45:00,
2013-11-18 22:50:00,35.0,24.8,30.23,South,169,5.0,7.0,66,0.00,,,0.00,Wunderground v.1.15,2013-11-19 04:50:00,
2013-11-18 23:00:00,35.1,24.9,30.23,SSE,167,5.0,5.0,66,0.00,,,0.00,Wunderground v.1.15,2013-11-19 05:00:00,
2013-11-18 23:05:00,35.1,24.5,30.22,South,169,6.0,6.0,65,0.00,,,0.00,Wunderground v.1.15,2013-11-19 05:05:00,
2013-11-18 23:10:00,35.0,24.8,30.23,South,171,5.0,5.0,66,0.00,,,0.00,Wunderground v.1.15,2013-11-19 05:10:00,
2013-11-18 23:15:00,34.4,24.2,30.23,South,173,5.0,7.0,66,0.00,,,0.00,Wunderground v.1.15,2013-11-19 05:15:00,
2013-11-18 23:20:00,34.3,24.5,30.22,South,172,6.0,7.0,67,0.00,,,0.00,Wunderground v.1.15,2013-11-19 05:20:00,
2013-11-18 23:25:00,34.3,24.5,30.22,South,172,6.0,7.0,67,0.00,,,0.00,Wunderground v.1.15,2013-11-19 05:25:00,
2013-11-18 23:30:00,34.4,24.6,30.23,South,173,6.0,7.0,67,0.00,,,0.00,Wunderground v.1.15,2013-11-19 05:30:00,
2013-11-18 23:35:00,34.6,24.8,30.22,South,169,6.0,7.0,67,0.00,,,0.00,Wunderground v.1.15,2013-11-19 05:35:00,
2013-11-18 23:40:00,34.6,24.8,30.22,South,169,6.0,6.0,67,0.00,,,0.00,Wunderground v.1.15,2013-11-19 05:40:00,
2013-11-18 23:45:00,34.6,24.8,30.22,South,171,6.0,7.0,67,0.00,,,0.00,Wunderground v.1.15,2013-11-19 05:45:00,
2013-11-18 23:55:00,34.9,24.7,30.22,South,173,5.0,7.0,66,0.00,,,0.00,Wunderground v.1.15,2013-11-19 05:55:00,